Dowden Acres, Indiana
Current Conditions -  °F | °C
As of 3:53 PM on Saturday 20 Dec 2014 (Local Time) from KHUF Reporting Station
Overcast Overcast  
Wind Chill: 34°   Ceiling: 6000
Heat Index: 34°   Visibility: 10mi
Dew Point: 25°   Wind: 0mph
Humidity: 70%   Direction: NA
Pressure: 30.27"   Gusts: NA
Location:  39.3587°N, 87.4056°W
Report Text: KHUF 202053Z 00000KT 10SM OVC060 01/M04 A3027 RMK AO2 SLP255 T00111039 55008
Loading
Personal Weather Stations






























Interactive Weather Map New forecast layout! Learn more

10-Day Weather Forecast

Advertisements
Track Severe Weather on mobile